Time;durP1;ratioP1;P1;durP2;ratioP2;P2;SDS_P1;SDS_P2;PMS_P1;PMS_P2;Temp;Humidity;BMP_temperature;BMP_pressure;BME280_temperature;BME280_humidity;BME280_pressure;Samples;Min_cycle;Max_cycle;Signal;HPM_P1;HPM_P2
2022/09/29 00:00:30;;;;;;;13.88;6.75;;;;;;;17.09;90.09;99624.66;5029901;28;20042;-78
2022/09/29 00:02:56;;;;;;;15.05;6.50;;;;;;;17.00;90.42;99605.59;5031784;28;20485;-76
2022/09/29 00:05:22;;;;;;;11.55;6.72;;;;;;;16.44;89.91;99500.88;5030236;28;20096;-77
2022/09/29 00:07:47;;;;;;;25.48;8.95;;;;;;;16.92;89.49;99573.22;5014858;28;20112;-78
2022/09/29 00:10:13;;;;;;;11.73;6.45;;;;;;;16.78;89.66;99544.59;5028679;28;20036;-78
2022/09/29 00:12:39;;;;;;;16.60;7.68;;;;;;;16.34;90.48;99487.16;5035396;28;20054;-77
2022/09/29 00:15:05;;;;;;;19.50;7.95;;;;;;;17.05;90.57;99585.06;5030990;28;20037;-78
2022/09/29 00:17:31;;;;;;;12.75;7.60;;;;;;;17.25;91.64;99629.31;5028718;28;20499;-76
2022/09/29 00:19:56;;;;;;;24.83;7.40;;;;;;;16.76;92.67;99549.06;5039593;28;21903;-77
2022/09/29 00:22:21;;;;;;;16.80;7.15;;;;;;;16.44;91.98;99483.22;5018151;28;21143;-78
2022/09/29 00:24:47;;;;;;;20.05;8.55;;;;;;;17.20;94.34;99626.84;5021174;28;20393;-78
2022/09/29 00:27:17;;;;;;;13.00;7.15;;;;;;;16.41;93.92;99506.28;5033845;28;20041;-80
2022/09/29 00:29:43;;;;;;;13.07;7.40;;;;;;;16.16;93.57;99456.09;5025520;28;20041;-79
2022/09/29 00:32:08;;;;;;;13.55;7.95;;;;;;;17.09;92.86;99631.72;5043085;28;20045;-77
2022/09/29 00:34:34;;;;;;;11.23;6.95;;;;;;;16.48;92.59;99509.56;5044361;28;20712;-78
2022/09/29 00:37:00;;;;;;;14.60;7.93;;;;;;;16.32;92.55;99482.81;5041219;28;20467;-76
2022/09/29 00:39:26;;;;;;;10.75;7.05;;;;;;;17.34;91.48;99628.09;5039376;28;20033;-77
2022/09/29 00:41:51;;;;;;;20.30;8.85;;;;;;;16.64;91.03;99510.69;5042434;28;20052;-79
2022/09/29 00:44:18;;;;;;;19.25;9.68;;;;;;;17.32;91.13;99627.28;5028135;28;20106;-78
2022/09/29 00:46:52;;;;;;;26.02;8.45;;;;;;;17.39;90.65;99621.66;5027047;28;20030;-80
2022/09/29 00:49:41;;;;;;;12.35;6.85;;;;;;;17.44;91.24;99621.47;5028562;28;20034;-78
2022/09/29 00:52:39;;;;;;;17.65;8.50;;;;;;;17.19;93.01;99590.69;5020866;28;20101;-76
2022/09/29 00:55:09;;;;;;;14.43;7.90;;;;;;;17.21;96.10;99612.69;5023489;28;20108;-78
2022/09/29 00:58:04;;;;;;;15.70;9.00;;;;;;;16.76;100.00;99591.47;5019786;28;20400;-78
2022/09/29 01:00:30;;;;;;;15.88;8.52;;;;;;;16.64;99.91;99574.25;5029848;28;20037;-74
2022/09/29 01:03:11;;;;;;;15.07;7.80;;;;;;;16.70;98.20;99533.44;5036609;28;20496;-79
2022/09/29 01:05:44;;;;;;;11.07;7.38;;;;;;;16.83;97.03;99567.38;5030480;28;20664;-76
2022/09/29 01:08:23;;;;;;;13.32;7.90;;;;;;;16.86;96.77;99558.44;5046453;28;20045;-77
2022/09/29 01:10:50;;;;;;;19.80;8.95;;;;;;;16.43;96.29;99513.25;5022567;28;20036;-78
2022/09/29 01:13:17;;;;;;;18.10;8.10;;;;;;;16.07;96.41;99441.41;5043823;28;20041;-78
2022/09/29 01:15:43;;;;;;;17.45;7.32;;;;;;;16.75;95.80;99576.50;5026894;28;20034;-81
2022/09/29 01:18:09;;;;;;;14.00;7.47;;;;;;;16.54;96.54;99555.22;5027554;28;20375;-79
2022/09/29 01:20:57;;;;;;;15.85;6.70;;;;;;;16.65;96.81;99571.56;5028072;28;20124;-77
2022/09/29 01:23:41;;;;;;;19.23;7.55;;;;;;;16.56;98.05;99569.25;5027787;28;20400;-79
2022/09/29 01:26:16;;;;;;;13.80;8.20;;;;;;;15.71;98.29;99435.69;5026810;28;20125;-80
2022/09/29 01:28:49;;;;;;;17.02;8.60;;;;;;;16.57;98.00;99575.41;5018587;28;20030;-76
2022/09/29 01:31:21;;;;;;;21.42;8.35;;;;;;;16.67;97.06;99590.06;5039805;28;20475;-81
2022/09/29 01:34:13;;;;;;;12.32;7.00;;;;;;;15.67;97.63;99415.56;5039537;28;20060;-77
2022/09/29 01:36:44;;;;;;;19.95;8.68;;;;;;;16.54;97.97;99580.84;5035357;28;20132;-76
2022/09/29 01:39:17;;;;;;;16.00;7.95;;;;;;;16.56;100.00;99573.69;5020591;28;20061;-76
2022/09/29 01:41:56;;;;;;;14.00;7.85;;;;;;;16.24;99.77;99571.31;5034928;28;20066;-77
2022/09/29 01:44:49;;;;;;;13.48;9.88;;;;;;;15.82;100.00;99511.09;5031871;28;20042;-76
2022/09/29 01:47:26;;;;;;;17.02;8.63;;;;;;;15.21;100.00;99423.34;5009385;28;20046;-77
2022/09/29 01:50:00;;;;;;;20.13;8.57;;;;;;;16.03;100.00;99566.81;5036230;28;20489;-77
2022/09/29 01:52:32;;;;;;;15.68;8.52;;;;;;;15.58;100.00;99464.34;5005338;28;20063;-82
2022/09/29 01:55:06;;;;;;;15.68;8.70;;;;;;;15.28;100.00;99429.28;5023171;28;20072;-82
2022/09/29 01:57:59;;;;;;;20.20;9.80;;;;;;;15.96;100.00;99565.31;5018528;28;20144;-78
2022/09/29 02:00:30;;;;;;;13.90;8.93;;;;;;;15.69;100.00;99540.69;5024937;28;20045;-79
2022/09/29 02:03:17;;;;;;;13.32;8.60;;;;;;;15.92;100.00;99583.09;5030757;28;20034;-82
2022/09/29 02:05:54;;;;;;;19.40;10.02;;;;;;;15.92;100.00;99569.88;5027339;28;20378;-81
2022/09/29 02:08:36;;;;;;;19.02;10.25;;;;;;;15.85;100.00;99580.69;5021999;28;20049;-79
2022/09/29 02:11:08;;;;;;;13.73;8.88;;;;;;;15.76;100.00;99566.03;5034980;28;20063;-83
2022/09/29 02:13:45;;;;;;;15.93;8.98;;;;;;;15.39;100.00;99531.09;5036937;28;20076;-80
2022/09/29 02:16:16;;;;;;;18.45;9.82;;;;;;;15.71;100.00;99565.31;5028546;28;20670;-80
2022/09/29 02:18:54;;;;;;;20.73;9.25;;;;;;;15.71;100.00;99578.53;5031324;28;20068;-82
2022/09/29 02:21:22;;;;;;;12.43;7.47;;;;;;;14.76;100.00;99424.88;5037282;28;20593;-80
2022/09/29 02:23:48;;;;;;;21.30;9.30;;;;;;;15.43;100.00;99552.13;5010342;28;20057;-74
2022/09/29 02:26:14;;;;;;;13.77;8.57;;;;;;;15.50;100.00;99573.03;5036125;28;20048;-74
2022/09/29 02:28:41;;;;;;;16.75;8.60;;;;;;;14.41;100.00;99394.31;5026868;28;20088;-73
2022/09/29 02:31:07;;;;;;;14.48;8.57;;;;;;;14.62;100.00;99429.75;5029875;28;20030;-75
2022/09/29 02:33:32;;;;;;;14.93;8.32;;;;;;;14.46;100.00;99436.38;5019893;28;20486;-75
2022/09/29 02:36:26;;;;;;;16.77;8.25;;;;;;;14.45;100.00;99435.53;5028379;28;20045;-76
2022/09/29 02:39:03;;;;;;;9.98;7.15;;;;;;;15.41;100.00;99576.00;5021919;28;20049;-76
2022/09/29 02:41:34;;;;;;;13.00;6.78;;;;;;;15.46;99.44;99579.34;5017669;28;20492;-74
2022/09/29 02:44:22;;;;;;;15.25;8.57;;;;;;;15.18;98.83;99537.97;5029060;28;20064;-76
2022/09/29 02:46:53;;;;;;;15.38;6.90;;;;;;;15.50;98.52;99596.84;5029660;28;20028;-75
2022/09/29 02:49:40;;;;;;;13.05;7.82;;;;;;;15.47;98.53;99565.19;5031611;28;20033;-75
2022/09/29 02:52:15;;;;;;;18.30;7.82;;;;;;;15.37;98.26;99572.56;5040981;28;20053;-75
2022/09/29 02:54:54;;;;;;;17.75;7.90;;;;;;;15.32;99.31;99585.09;5030766;28;20500;-75
2022/09/29 02:57:35;;;;;;;10.88;7.43;;;;;;;15.36;99.67;99584.06;5027829;28;20053;-75
2022/09/29 03:00:08;;;;;;;13.30;7.90;;;;;;;14.77;99.54;99511.13;5025656;28;20049;-75
2022/09/29 03:02:34;;;;;;;18.95;8.82;;;;;;;15.24;99.96;99584.47;5030131;28;20069;-76
2022/09/29 03:05:01;;;;;;;16.10;7.38;;;;;;;15.18;99.46;99552.97;5020778;28;20149;-74
2022/09/29 03:07:27;;;;;;;13.80;7.43;;;;;;;15.23;99.82;99582.75;4999656;28;20029;-75
2022/09/29 03:09:53;;;;;;;13.73;7.32;;;;;;;14.41;100.00;99496.38;5027999;28;20500;-75
2022/09/29 03:12:19;;;;;;;13.25;7.45;;;;;;;15.02;100.00;99600.13;5028300;28;20049;-75
2022/09/29 03:14:45;;;;;;;11.80;7.95;;;;;;;14.96;100.00;99600.31;5030055;28;20038;-74
2022/09/29 03:17:10;;;;;;;12.98;8.48;;;;;;;15.04;100.00;99603.59;5031005;28;20482;-76
2022/09/29 03:19:36;;;;;;;9.95;7.43;;;;;;;15.01;100.00;99592.25;5031051;28;20025;-74
2022/09/29 03:22:02;;;;;;;13.68;7.93;;;;;;;14.44;100.00;99507.69;5030322;28;20041;-75
2022/09/29 03:24:34;;;;;;;14.20;7.97;;;;;;;14.53;100.00;99533.81;5031156;28;20077;-75
2022/09/29 03:27:08;;;;;;;9.38;6.80;;;;;;;14.09;100.00;99467.41;5019206;28;20051;-75
2022/09/29 03:29:34;;;;;;;19.08;7.05;;;;;;;14.65;100.00;99582.78;5030030;28;20152;-75
2022/09/29 03:32:00;;;;;;;12.77;6.88;;;;;;;14.65;100.00;99595.13;5030853;28;20156;-75
2022/09/29 03:34:25;;;;;;;12.70;7.28;;;;;;;14.12;100.00;99480.50;5036373;28;20052;-75
2022/09/29 03:36:51;;;;;;;14.60;8.60;;;;;;;14.26;100.00;99485.38;5035460;28;20049;-76
2022/09/29 03:39:16;;;;;;;13.07;7.88;;;;;;;13.96;100.00;99492.41;5039026;28;20033;-76
2022/09/29 03:41:42;;;;;;;12.98;7.15;;;;;;;14.63;100.00;99583.72;5032778;28;20740;-75
2022/09/29 03:44:07;;;;;;;13.40;9.48;;;;;;;13.82;100.00;99479.63;5030509;28;20061;-75
2022/09/29 03:46:33;;;;;;;19.65;7.65;;;;;;;14.18;100.00;99545.41;5025966;28;20732;-75
2022/09/29 03:48:58;;;;;;;17.67;6.65;;;;;;;13.84;100.00;99458.50;5031512;28;20653;-75
2022/09/29 03:51:24;;;;;;;12.45;7.78;;;;;;;14.42;100.00;99582.56;5030604;28;20695;-75
2022/09/29 03:53:49;;;;;;;11.20;8.45;;;;;;;14.50;100.00;99605.19;5036049;28;20087;-75
2022/09/29 03:56:15;;;;;;;12.38;8.13;;;;;;;14.46;100.00;99600.03;5031858;28;20041;-75
2022/09/29 03:58:40;;;;;;;16.77;7.90;;;;;;;13.62;100.00;99481.94;5023607;28;20753;-73
2022/09/29 04:01:06;;;;;;;15.05;8.40;;;;;;;13.70;100.00;99490.53;5034739;28;20045;-74
2022/09/29 04:03:32;;;;;;;9.98;6.88;;;;;;;14.39;100.00;99620.47;5022089;28;20042;-76
2022/09/29 04:05:58;;;;;;;16.98;8.15;;;;;;;14.39;100.00;99585.28;5019785;28;20120;-75
2022/09/29 04:08:23;;;;;;;14.95;7.22;;;;;;;14.35;100.00;99613.53;5035347;28;20473;-75
2022/09/29 04:10:49;;;;;;;15.50;8.68;;;;;;;14.34;100.00;99614.47;5026397;28;20026;-74
2022/09/29 04:13:15;;;;;;;10.50;6.68;;;;;;;13.70;100.00;99480.84;5035559;28;20076;-76
2022/09/29 04:15:40;;;;;;;10.93;6.47;;;;;;;13.82;100.00;99502.50;5038566;28;20474;-75
2022/09/29 04:18:06;;;;;;;9.73;7.53;;;;;;;14.38;100.00;99604.69;5020859;28;20128;-75
2022/09/29 04:20:32;;;;;;;14.02;8.02;;;;;;;13.79;99.55;99492.00;5032092;28;20048;-75
2022/09/29 04:22:59;;;;;;;12.48;7.78;;;;;;;14.44;99.41;99602.72;5011777;28;20046;-75
2022/09/29 04:25:26;;;;;;;12.85;7.75;;;;;;;14.31;100.00;99609.28;5017796;28;20077;-75
2022/09/29 04:27:52;;;;;;;10.95;7.07;;;;;;;14.31;100.00;99610.13;5007562;28;20046;-76
2022/09/29 04:30:18;;;;;;;13.27;7.57;;;;;;;13.65;100.00;99492.41;5009495;28;20037;-77
2022/09/29 04:32:43;;;;;;;14.32;6.18;;;;;;;13.31;100.00;99464.31;5010457;28;20163;-74
2022/09/29 04:35:09;;;;;;;20.73;7.18;;;;;;;14.39;100.00;99632.81;5010667;28;20042;-74
2022/09/29 04:37:35;;;;;;;11.75;7.55;;;;;;;13.94;100.00;99561.03;5007585;28;20509;-75
2022/09/29 04:40:02;;;;;;;12.18;7.50;;;;;;;14.23;100.00;99625.31;4997777;28;20050;-75
2022/09/29 04:42:27;;;;;;;11.60;7.28;;;;;;;14.14;100.00;99613.25;5004773;28;20067;-75
2022/09/29 04:44:53;;;;;;;12.68;7.45;;;;;;;14.01;100.00;99619.75;5006557;28;20400;-75
2022/09/29 04:47:18;;;;;;;13.00;7.50;;;;;;;14.19;100.00;99628.06;5006776;28;20045;-75
2022/09/29 04:49:44;;;;;;;15.27;10.18;;;;;;;13.68;100.00;99516.06;4999282;28;20025;-75
2022/09/29 04:52:13;;;;;;;9.45;6.88;;;;;;;13.68;100.00;99516.91;5006525;28;20034;-75
2022/09/29 04:54:39;;;;;;;10.13;7.40;;;;;;;14.32;99.45;99613.63;5020636;28;20050;-75
2022/09/29 04:57:05;;;;;;;14.65;8.25;;;;;;;13.58;100.00;99523.34;4996341;28;20038;-74
2022/09/29 04:59:30;;;;;;;12.57;6.95;;;;;;;13.92;99.85;99547.00;4995218;28;20034;-76
2022/09/29 05:01:56;;;;;;;13.77;7.47;;;;;;;14.18;98.88;99603.47;5015228;28;20132;-75
2022/09/29 05:04:21;;;;;;;13.18;6.50;;;;;;;13.95;97.24;99524.97;5019016;28;20168;-74
2022/09/29 05:06:47;;;;;;;9.93;6.43;;;;;;;14.53;97.04;99606.88;5004892;28;20054;-75
2022/09/29 05:09:13;;;;;;;14.55;7.07;;;;;;;14.83;95.88;99628.91;4988754;28;20050;-75
2022/09/29 05:11:39;;;;;;;20.50;7.78;;;;;;;14.75;96.86;99628.28;4989298;28;20045;-75
2022/09/29 05:14:04;;;;;;;12.52;8.07;;;;;;;14.72;96.88;99636.28;5007658;28;20410;-75
2022/09/29 05:16:30;;;;;;;11.70;7.30;;;;;;;14.65;96.32;99618.88;4992130;28;20021;-75
2022/09/29 05:18:55;;;;;;;10.75;6.65;;;;;;;13.99;95.80;99488.81;5006621;28;20054;-75
2022/09/29 05:21:21;;;;;;;10.55;7.22;;;;;;;13.99;95.43;99492.31;5005044;28;20487;-75
2022/09/29 05:23:46;;;;;;;14.95;6.47;;;;;;;14.25;95.61;99530.28;5007891;28;20172;-75
2022/09/29 05:26:12;;;;;;;9.60;6.55;;;;;;;14.37;95.43;99543.09;5008803;28;20041;-75
2022/09/29 05:28:43;;;;;;;13.27;6.82;;;;;;;15.09;95.59;99651.03;5025170;28;20037;-75
2022/09/29 05:31:09;;;;;;;17.85;8.95;;;;;;;15.13;95.09;99660.59;5017124;28;20132;-75
2022/09/29 05:33:36;;;;;;;14.40;6.90;;;;;;;14.40;95.17;99510.47;5014446;28;20049;-75
2022/09/29 05:36:06;;;;;;;15.73;7.80;;;;;;;14.80;94.19;99565.63;5019728;28;20049;-74
2022/09/29 05:38:34;;;;;;;14.98;7.95;;;;;;;14.80;94.09;99533.03;5004892;28;21337;-74
2022/09/29 05:41:03;;;;;;;14.05;8.18;;;;;;;15.18;93.73;99613.75;5022043;28;20120;-79
2022/09/29 05:43:28;;;;;;;15.50;8.55;;;;;;;14.61;94.12;99522.19;5024158;28;20041;-79
2022/09/29 05:46:00;;;;;;;16.30;6.88;;;;;;;15.23;93.49;99609.16;5018277;28;20030;-79
2022/09/29 05:48:32;;;;;;;14.43;6.95;;;;;;;15.47;92.97;99647.16;5030583;28;20037;-78
2022/09/29 05:50:59;;;;;;;23.60;8.53;;;;;;;14.79;93.30;99505.75;5006617;28;20045;-79
2022/09/29 05:53:24;;;;;;;21.40;8.82;;;;;;;14.74;93.31;99510.34;5022480;28;20050;-79
2022/09/29 05:55:50;;;;;;;15.50;8.48;;;;;;;14.67;92.89;99517.59;5044391;28;20460;-80
2022/09/29 05:58:16;;;;;;;20.20;8.13;;;;;;;15.40;92.11;99630.66;5038007;28;20029;-79
2022/09/29 06:00:41;;;;;;;13.10;7.85;;;;;;;15.65;91.75;99651.00;5031717;28;20502;-80
2022/09/29 06:03:07;;;;;;;14.60;7.20;;;;;;;15.76;90.25;99651.53;5013262;28;20759;-79
2022/09/29 06:05:37;;;;;;;8.98;6.28;;;;;;;15.77;89.69;99632.09;5025810;28;20045;-80
2022/09/29 06:08:02;;;;;;;19.58;6.85;;;;;;;15.10;89.85;99516.22;5026460;28;20041;-79
2022/09/29 06:10:28;;;;;;;22.63;6.82;;;;;;;15.14;89.77;99527.53;5035202;28;20043;-79
2022/09/29 06:12:54;;;;;;;13.85;7.00;;;;;;;15.87;89.53;99630.00;5031015;28;20058;-80
2022/09/29 06:15:19;;;;;;;23.27;8.18;;;;;;;15.87;89.50;99615.91;5030635;28;20397;-78
2022/09/29 06:17:45;;;;;;;16.60;6.78;;;;;;;15.35;88.38;99529.47;5036778;28;20481;-78
2022/09/29 06:20:11;;;;;;;13.98;7.95;;;;;;;16.08;88.92;99640.75;5028665;28;20508;-78
2022/09/29 06:22:36;;;;;;;42.58;9.82;;;;;;;15.66;88.54;99536.34;5010048;28;20041;-79
2022/09/29 06:25:02;;;;;;;29.63;9.85;;;;;;;16.36;88.36;99622.97;5005579;28;20080;-79
2022/09/29 06:27:27;;;;;;;23.08;9.02;;;;;;;15.87;88.16;99510.06;5004221;28;20195;-83
2022/09/29 06:29:53;;;;;;;20.92;9.40;;;;;;;16.52;87.26;99609.16;5015321;28;20088;-79
2022/09/29 06:32:18;;;;;;;18.73;7.55;;;;;;;16.18;87.08;99538.94;5023452;28;20104;-79
2022/09/29 06:37:34;;;;;;;13.07;6.18;;;;;;;16.90;85.68;99602.41;5027938;28;20039;-80
2022/09/29 06:40:03;;;;;;;11.80;7.90;;;;;;;17.05;85.89;99632.78;5029110;28;20072;-79
2022/09/29 06:42:29;;;;;;;18.73;7.10;;;;;;;17.28;85.43;99639.84;5027805;28;20545;-79
2022/09/29 06:44:55;;;;;;;20.02;8.60;;;;;;;17.51;84.59;99645.06;5013039;28;20049;-77
2022/09/29 06:47:20;;;;;;;18.83;9.20;;;;;;;17.07;84.21;99546.13;5015054;28;20121;-77
2022/09/29 06:49:46;;;;;;;14.15;8.95;;;;;;;17.03;83.22;99518.84;5025610;28;20469;-80
2022/09/29 06:52:11;;;;;;;10.10;7.82;;;;;;;17.95;82.49;99641.50;5016497;28;20154;-79
2022/09/29 06:54:37;;;;;;;13.48;7.05;;;;;;;17.56;82.21;99553.78;5003270;28;20125;-78
2022/09/29 06:57:02;;;;;;;15.05;8.95;;;;;;;17.78;82.68;99578.50;4996388;28;20033;-78
2022/09/29 06:59:28;;;;;;;19.23;8.35;;;;;;;17.73;82.31;99549.50;5004881;28;21751;-80
2022/09/29 07:01:53;;;;;;;17.50;9.98;;;;;;;18.33;81.22;99646.91;5010813;28;20026;-77
2022/09/29 07:04:20;;;;;;;21.92;8.45;;;;;;;17.87;80.49;99519.75;5010142;28;20030;-79
2022/09/29 07:06:45;;;;;;;13.13;8.95;;;;;;;17.99;77.57;99555.50;4998621;28;20085;-77
2022/09/29 07:09:17;;;;;;;11.40;5.85;;;;;;;18.43;77.50;99620.84;5005461;28;20125;-80
2022/09/29 07:11:45;;;;;;;14.77;7.32;;;;;;;18.35;76.93;99583.97;5014374;28;20046;-79
2022/09/29 07:14:12;;;;;;;16.17;8.15;;;;;;;18.02;76.61;99525.28;5016565;28;20041;-79
2022/09/29 07:16:37;;;;;;;11.32;6.30;;;;;;;19.01;75.75;99655.41;5013508;28;20040;-75
2022/09/29 07:19:03;;;;;;;11.32;5.53;;;;;;;18.74;74.89;99609.66;5010333;28;20458;-78
2022/09/29 07:21:28;;;;;;;14.80;6.72;;;;;;;18.96;75.52;99644.97;4988167;28;20081;-79
2022/09/29 07:23:53;;;;;;;8.80;5.53;;;;;;;18.37;76.13;99536.09;4989203;28;20073;-80
2022/09/29 07:26:19;;;;;;;17.10;5.38;;;;;;;19.17;74.21;99669.69;5029703;28;20065;-79
2022/09/29 07:28:45;;;;;;;10.52;5.47;;;;;;;18.55;74.46;99549.38;5024615;28;20707;-79
2022/09/29 07:31:14;;;;;;;10.98;4.35;;;;;;;18.82;74.84;99588.06;5032911;28;20163;-79
2022/09/29 07:33:40;;;;;;;13.35;5.00;;;;;;;19.19;76.06;99637.69;5031866;28;20107;-77
2022/09/29 07:36:06;;;;;;;13.85;6.22;;;;;;;18.96;74.26;99569.66;5033572;28;20042;-80
2022/09/29 07:38:31;;;;;;;6.70;4.65;;;;;;;18.82;74.83;99557.00;5025189;28;20045;-80
2022/09/29 07:41:08;;;;;;;11.75;5.45;;;;;;;19.25;74.88;99632.09;5009608;28;20051;-78
2022/09/29 07:43:34;;;;;;;19.05;5.80;;;;;;;18.79;72.59;99558.97;5018647;28;20381;-79
2022/09/29 07:46:00;;;;;;;9.85;5.93;;;;;;;18.98;73.37;99563.31;5012122;28;20052;-78
2022/09/29 07:48:26;;;;;;;18.23;6.18;;;;;;;18.92;74.04;99549.50;5029174;28;20033;-78
2022/09/29 07:51:01;;;;;;;13.27;6.18;;;;;;;19.63;74.16;99674.59;5031330;28;20045;-79
2022/09/29 07:53:27;;;;;;;13.50;5.18;;;;;;;19.60;73.53;99678.25;5016726;28;20052;-81
2022/09/29 07:55:54;;;;;;;11.48;5.22;;;;;;;19.52;73.54;99682.22;5021068;28;20034;-79
2022/09/29 07:58:19;;;;;;;10.88;3.97;;;;;;;19.59;72.44;99675.66;5019073;28;20038;-80
2022/09/29 08:00:45;;;;;;;14.07;4.97;;;;;;;18.96;70.85;99569.66;5030058;28;20127;-79
2022/09/29 08:03:10;;;;;;;12.93;4.05;;;;;;;19.36;69.58;99610.25;5012848;28;20753;-78
2022/09/29 08:05:36;;;;;;;18.98;4.45;;;;;;;19.79;70.85;99672.06;5018270;28;20129;-79
2022/09/29 08:08:03;;;;;;;12.43;3.95;;;;;;;19.78;69.78;99644.59;5020728;28;20042;-80
2022/09/29 08:10:31;;;;;;;9.88;4.13;;;;;;;19.99;69.96;99665.72;5028719;28;20039;-79
2022/09/29 08:12:56;;;;;;;10.82;3.80;;;;;;;19.11;69.78;99544.97;5025352;28;20054;-79
2022/09/29 08:15:22;;;;;;;10.77;4.78;;;;;;;19.38;68.69;99556.03;5029115;28;20049;-79
2022/09/29 08:17:51;;;;;;;7.45;4.13;;;;;;;19.77;68.78;99637.53;5027719;28;20046;-80
2022/09/29 08:20:16;;;;;;;7.05;3.00;;;;;;;19.71;68.71;99632.50;5041497;28;20037;-78
2022/09/29 08:22:42;;;;;;;7.15;2.97;;;;;;;19.61;66.25;99607.25;5036646;28;20656;-78
2022/09/29 08:25:08;;;;;;;7.70;4.45;;;;;;;19.96;67.65;99650.75;5040061;28;20040;-79
2022/09/29 08:27:33;;;;;;;10.32;4.88;;;;;;;20.08;66.74;99645.75;5021153;28;20172;-79
2022/09/29 08:29:59;;;;;;;11.20;5.60;;;;;;;20.42;66.59;99675.03;5015416;28;20056;-80
2022/09/29 08:32:24;;;;;;;9.52;4.43;;;;;;;20.31;67.51;99647.22;5018660;28;20053;-78
2022/09/29 08:34:50;;;;;;;17.65;4.68;;;;;;;20.01;67.07;99584.78;5027280;28;20056;-80
2022/09/29 08:37:16;;;;;;;7.80;3.50;;;;;;;19.61;68.45;99538.91;5014411;28;20029;-78
2022/09/29 08:39:42;;;;;;;15.88;5.22;;;;;;;20.57;65.99;99637.88;5039043;28;20037;-79
2022/09/29 08:42:41;;;;;;;11.05;4.40;;;;;;;20.63;65.69;99640.22;5024723;28;20048;-78
2022/09/29 08:45:13;;;;;;;13.00;5.05;;;;;;;20.42;64.62;99560.44;4989984;28;20775;-79
2022/09/29 08:47:44;;;;;;;15.38;5.72;;;;;;;20.80;68.10;99661.47;5028497;28;20037;-78
2022/09/29 08:50:24;;;;;;;12.98;4.97;;;;;;;20.88;67.33;99663.72;5027259;28;20077;-77
2022/09/29 08:52:58;;;;;;;12.43;4.78;;;;;;;20.98;68.32;99674.78;5036000;28;20187;-78
2022/09/29 08:55:51;;;;;;;15.40;5.88;;;;;;;21.01;67.13;99654.09;5035008;28;20188;-81
2022/09/29 08:58:17;;;;;;;16.10;5.80;;;;;;;21.12;65.69;99642.84;5028704;28;20079;-79
2022/09/29 09:00:43;;;;;;;12.75;5.18;;;;;;;21.20;66.11;99693.97;5009161;28;20455;-78
2022/09/29 09:03:24;;;;;;;17.75;4.90;;;;;;;21.34;64.93;99671.00;5027514;28;20053;-78
2022/09/29 09:06:26;;;;;;;7.78;4.20;;;;;;;21.51;63.38;99673.59;5014047;28;20092;-77
2022/09/29 09:09:10;;;;;;;10.93;4.63;;;;;;;21.69;62.32;99685.03;5037747;28;20155;-80
2022/09/29 09:12:03;;;;;;;8.00;3.72;;;;;;;21.82;62.71;99669.13;5019055;28;20125;-80
2022/09/29 09:14:36;;;;;;;12.98;5.28;;;;;;;21.86;64.87;99676.03;5026510;28;20053;-77
2022/09/29 09:17:10;;;;;;;9.73;4.05;;;;;;;21.71;66.07;99673.31;5026921;28;20037;-79
2022/09/29 09:19:42;;;;;;;10.27;5.28;;;;;;;22.03;59.89;99675.91;5033943;28;20116;-78
2022/09/29 09:22:28;;;;;;;9.05;3.65;;;;;;;21.99;59.97;99662.81;5017092;28;20751;-79
2022/09/29 09:24:55;;;;;;;15.65;4.30;;;;;;;22.30;60.49;99686.78;5051494;28;20088;-76
2022/09/29 09:27:26;;;;;;;13.65;4.97;;;;;;;21.20;60.41;99487.66;5041086;28;20037;-79
2022/09/29 09:30:03;;;;;;;10.57;3.80;;;;;;;22.49;58.10;99681.16;5023789;28;20068;-80
2022/09/29 09:32:33;;;;;;;6.25;4.18;;;;;;;22.48;57.86;99652.72;5027489;28;20105;-78
2022/09/29 09:35:05;;;;;;;9.95;4.65;;;;;;;22.62;59.07;99638.50;5033788;28;20037;-79
2022/09/29 09:37:40;;;;;;;11.75;5.53;;;;;;;22.80;60.74;99657.00;5042149;28;20032;-77
2022/09/29 09:40:20;;;;;;;10.95;5.00;;;;;;;22.79;58.83;99645.47;5038653;28;20396;-79
2022/09/29 09:43:04;;;;;;;14.88;5.68;;;;;;;22.40;56.83;99545.38;5040985;28;20043;-78
2022/09/29 09:45:47;;;;;;;12.07;4.68;;;;;;;22.87;55.88;99627.09;5036854;28;20533;-79
2022/09/29 09:48:17;;;;;;;13.25;4.45;;;;;;;22.48;56.49;99536.91;5026969;28;20045;-79
2022/09/29 09:50:43;;;;;;;14.02;4.78;;;;;;;22.47;60.36;99585.97;5030209;28;20045;-79
2022/09/29 09:53:39;;;;;;;11.32;4.65;;;;;;;23.28;54.66;99642.34;5018663;28;20829;-79
2022/09/29 09:56:12;;;;;;;7.10;4.13;;;;;;;23.51;54.33;99658.75;5025058;28;20180;-78
2022/09/29 09:58:47;;;;;;;7.78;3.90;;;;;;;22.94;55.69;99537.47;5024292;28;20110;-78
2022/09/29 10:01:12;;;;;;;7.65;4.25;;;;;;;23.66;52.39;99647.00;5006790;28;20050;-79
2022/09/29 10:03:38;;;;;;;7.47;3.28;;;;;;;23.08;58.64;99566.03;5022189;28;20587;-79
2022/09/29 10:06:07;;;;;;;8.25;4.50;;;;;;;23.50;53.31;99641.78;5021112;28;20781;-79
2022/09/29 10:08:37;;;;;;;7.10;2.90;;;;;;;23.49;52.22;99585.69;5036911;28;20049;-79
2022/09/29 10:11:04;;;;;;;14.85;5.72;;;;;;;23.82;53.39;99632.63;5041317;28;20103;-79
2022/09/29 10:13:30;;;;;;;24.55;4.38;;;;;;;23.99;53.12;99638.53;5022920;28;20025;-78
2022/09/29 10:16:08;;;;;;;11.70;5.80;;;;;;;24.08;53.24;99653.13;5038073;28;20037;-77
2022/09/29 10:18:43;;;;;;;10.05;4.75;;;;;;;24.16;53.72;99639.19;5017619;28;20075;-79
2022/09/29 10:21:29;;;;;;;11.90;4.80;;;;;;;24.26;51.84;99648.34;5024589;28;20048;-79
2022/09/29 10:23:58;;;;;;;9.05;3.58;;;;;;;23.60;53.47;99575.97;5019731;28;20132;-79
2022/09/29 10:26:28;;;;;;;9.82;4.15;;;;;;;24.18;50.53;99664.94;5046716;28;20059;-79
2022/09/29 10:29:35;;;;;;;15.63;4.95;;;;;;;24.34;52.03;99651.34;5020594;28;20034;-80
2022/09/29 10:32:14;;;;;;;7.78;3.42;;;;;;;23.80;51.44;99552.34;5025521;28;20033;-76
2022/09/29 10:34:43;;;;;;;9.75;3.58;;;;;;;23.94;51.15;99564.78;5042426;28;20048;-77
2022/09/29 10:37:36;;;;;;;7.78;3.38;;;;;;;24.53;50.37;99663.50;5042558;28;20060;-78
2022/09/29 10:40:09;;;;;;;14.85;3.55;;;;;;;24.63;49.47;99660.06;5030429;28;20041;-79
2022/09/29 10:42:38;;;;;;;6.05;3.25;;;;;;;24.70;48.41;99659.63;5037426;28;20049;-80
2022/09/29 10:45:12;;;;;;;9.82;3.50;;;;;;;23.90;51.93;99544.53;5038090;28;20055;-82
2022/09/29 10:47:39;;;;;;;9.63;4.32;;;;;;;24.67;49.12;99657.16;5037903;28;20045;-81
2022/09/29 10:50:11;;;;;;;13.57;5.90;;;;;;;24.38;49.61;99615.31;5024990;28;20164;-79
2022/09/29 10:52:40;;;;;;;15.77;8.40;;;;;;;24.13;49.55;99542.91;5031113;28;20067;-79
2022/09/29 10:55:15;;;;;;;13.30;3.88;;;;;;;24.29;48.56;99540.03;5037876;28;21050;-78
2022/09/29 10:57:44;;;;;;;10.85;4.53;;;;;;;24.71;49.32;99637.22;5032590;28;20052;-81
2022/09/29 11:00:26;;;;;;;10.98;4.35;;;;;;;24.18;49.58;99536.25;5012548;28;20103;-78
2022/09/29 11:02:58;;;;;;;18.13;4.57;;;;;;;24.71;50.30;99619.28;5023804;28;20124;-78
2022/09/29 11:05:24;;;;;;;9.40;4.40;;;;;;;24.85;51.17;99639.75;5028866;28;20477;-79
2022/09/29 11:07:52;;;;;;;11.05;6.05;;;;;;;24.63;50.71;99613.59;5029510;28;20029;-79
2022/09/29 11:10:35;;;;;;;9.80;3.75;;;;;;;24.57;49.10;99651.59;5028330;28;20033;-79
2022/09/29 11:13:19;;;;;;;5.90;3.08;;;;;;;24.64;49.65;99650.19;5039345;28;20053;-76
2022/09/29 11:15:44;;;;;;;5.20;3.40;;;;;;;24.44;50.04;99604.16;5000781;28;20053;-79
2022/09/29 11:18:25;;;;;;;15.02;3.45;;;;;;;23.89;50.20;99498.13;5029088;28;20488;-79
2022/09/29 11:21:23;;;;;;;8.98;3.83;;;;;;;24.16;50.44;99538.22;5013246;28;20649;-80
2022/09/29 11:24:00;;;;;;;10.38;3.75;;;;;;;24.66;50.13;99639.38;4994921;28;20046;-78
2022/09/29 11:26:38;;;;;;;5.07;3.78;;;;;;;24.58;51.95;99634.53;5024878;28;20045;-79
2022/09/29 11:29:14;;;;;;;9.82;4.25;;;;;;;24.75;50.23;99642.25;5023511;28;20053;-79
2022/09/29 11:31:42;;;;;;;10.27;3.63;;;;;;;24.79;51.08;99638.34;5040183;28;20068;-79
2022/09/29 11:34:45;;;;;;;20.55;4.28;;;;;;;24.62;51.82;99614.56;5033523;28;20156;-77
2022/09/29 11:37:22;;;;;;;9.63;2.88;;;;;;;24.50;50.15;99640.44;5043247;28;20053;-78
2022/09/29 11:40:01;;;;;;;12.05;3.58;;;;;;;24.30;49.54;99601.56;5042921;28;20040;-79
2022/09/29 11:42:55;;;;;;;9.27;4.57;;;;;;;24.57;49.16;99635.50;5034232;28;20203;-78